Time;durP1;ratioP1;P1;durP2;ratioP2;P2;SDS_P1;SDS_P2;PMS_P1;PMS_P2;Temp;Humidity;BMP_temperature;BMP_pressure;BME280_temperature;BME280_humidity;BME280_pressure;Samples;Min_cycle;Max_cycle;Signal;HPM_P1;HPM_P2
2023/08/12 00:01:22;;;;;;;2.63;1.90;;;;;;;19.13;85.27;99597.44;5108484;28;20204;-59
2023/08/12 00:03:49;;;;;;;3.20;1.93;;;;;;;19.07;86.18;99592.88;5108543;28;20207;-59
2023/08/12 00:06:15;;;;;;;2.97;1.77;;;;;;;19.02;86.55;99589.91;5108587;28;20209;-59
2023/08/12 00:08:42;;;;;;;2.30;1.83;;;;;;;18.91;86.71;99587.59;5108903;28;20203;-59
2023/08/12 00:11:09;;;;;;;1.90;1.60;;;;;;;18.78;87.54;99604.34;5108292;28;20588;-59
2023/08/12 00:13:36;;;;;;;3.10;1.80;;;;;;;18.68;87.61;99608.78;5108101;28;20721;-59
2023/08/12 00:16:03;;;;;;;4.60;2.10;;;;;;;18.63;88.40;99600.63;5108737;28;20198;-59
2023/08/12 00:18:36;;;;;;;3.93;2.13;;;;;;;18.54;89.47;99598.94;5108332;28;20208;-59
2023/08/12 00:21:07;;;;;;;2.53;1.70;;;;;;;18.46;89.86;99593.69;5108418;28;20247;-59
2023/08/12 00:23:34;;;;;;;2.00;1.70;;;;;;;18.38;91.04;99591.03;5108546;28;20285;-59
2023/08/12 00:26:01;;;;;;;2.20;1.70;;;;;;;18.37;91.22;99598.00;5108299;28;20198;-59
2023/08/12 00:28:28;;;;;;;5.23;1.80;;;;;;;18.33;90.99;99594.91;5107253;28;20208;-60
2023/08/12 00:30:55;;;;;;;3.47;2.00;;;;;;;18.35;92.19;99601.69;5106553;28;20203;-59
2023/08/12 00:33:21;;;;;;;3.37;1.97;;;;;;;18.42;91.30;99600.16;5106897;28;20233;-59
2023/08/12 00:35:50;;;;;;;3.40;1.80;;;;;;;18.38;91.99;99601.38;5108034;28;20203;-59
2023/08/12 00:38:17;;;;;;;2.20;1.90;;;;;;;18.31;92.52;99596.00;5108231;28;20201;-59
2023/08/12 00:40:44;;;;;;;2.73;2.00;;;;;;;18.23;92.67;99596.72;5108013;28;20208;-59
2023/08/12 00:43:11;;;;;;;3.43;1.60;;;;;;;18.22;93.19;99592.53;5107953;28;20210;-60
2023/08/12 00:45:38;;;;;;;2.47;1.80;;;;;;;18.10;93.94;99593.72;5108202;28;20594;-59
2023/08/12 00:48:06;;;;;;;2.33;1.70;;;;;;;18.05;93.03;99601.09;5107988;28;20217;-59
2023/08/12 00:50:33;;;;;;;2.03;1.53;;;;;;;18.07;93.23;99599.19;5108056;28;20220;-59
2023/08/12 00:53:02;;;;;;;3.97;2.07;;;;;;;18.04;94.69;99589.94;5108106;28;20230;-59
2023/08/12 00:55:29;;;;;;;6.00;1.83;;;;;;;17.94;94.58;99596.13;5108294;28;20208;-59
2023/08/12 00:57:55;;;;;;;2.20;1.63;;;;;;;17.94;94.31;99598.69;5108040;28;20357;-59
2023/08/12 01:00:21;;;;;;;2.27;1.80;;;;;;;17.95;94.76;99589.97;5108008;28;20213;-60
2023/08/12 01:02:50;;;;;;;3.93;1.97;;;;;;;17.83;96.71;99591.94;5108073;28;20289;-59
2023/08/12 01:05:17;;;;;;;3.27;1.90;;;;;;;17.82;96.05;99598.09;5107603;28;20248;-59
2023/08/12 01:07:45;;;;;;;2.60;2.00;;;;;;;17.82;96.40;99596.31;5107691;28;20221;-59
2023/08/12 01:10:15;;;;;;;3.97;1.90;;;;;;;17.81;96.36;99594.69;5107947;28;20199;-59
2023/08/12 01:12:51;;;;;;;2.47;1.90;;;;;;;17.79;96.24;99591.44;5108070;28;20209;-59
2023/08/12 01:15:21;;;;;;;2.90;2.03;;;;;;;17.80;96.30;99592.25;5108083;28;20262;-59
2023/08/12 01:17:51;;;;;;;2.97;1.93;;;;;;;17.81;95.62;99591.31;5107908;28;20219;-59
2023/08/12 01:20:24;;;;;;;3.37;1.90;;;;;;;17.79;96.46;99591.44;5107845;28;20429;-59
2023/08/12 01:22:56;;;;;;;3.73;2.00;;;;;;;17.78;96.31;99589.81;5107728;28;20212;-59
2023/08/12 01:25:25;;;;;;;2.50;1.80;;;;;;;17.74;96.47;99595.38;5107984;28;20573;-59
2023/08/12 01:27:52;;;;;;;2.73;1.90;;;;;;;17.75;96.28;99600.41;5107673;28;20204;-59
2023/08/12 01:30:22;;;;;;;2.90;2.00;;;;;;;17.68;96.19;99596.75;5107694;28;20215;-60
2023/08/12 01:32:57;;;;;;;3.03;2.10;;;;;;;17.68;97.29;99589.00;5107729;28;20598;-59
2023/08/12 01:35:30;;;;;;;3.03;1.80;;;;;;;17.70;96.53;99591.47;5109033;28;20199;-59
2023/08/12 01:37:59;;;;;;;2.20;1.80;;;;;;;17.71;96.50;99593.88;5111452;28;20727;-59
2023/08/12 01:40:30;;;;;;;4.23;1.80;;;;;;;17.69;97.72;99600.19;5111354;28;20664;-59
2023/08/12 01:42:57;;;;;;;3.20;2.17;;;;;;;17.63;97.70;99604.16;5111513;28;20208;-59
2023/08/12 01:45:24;;;;;;;2.80;2.00;;;;;;;17.65;97.21;99599.63;5111140;28;20200;-59
2023/08/12 01:47:51;;;;;;;2.40;1.83;;;;;;;17.67;97.97;99596.91;5111061;28;20204;-59
2023/08/12 01:50:21;;;;;;;3.37;2.23;;;;;;;17.65;98.72;99591.88;5111043;28;20207;-59
2023/08/12 01:52:48;;;;;;;2.73;2.13;;;;;;;17.64;98.32;99595.44;5111170;28;20289;-59
2023/08/12 01:55:15;;;;;;;2.80;2.10;;;;;;;17.64;98.25;99598.81;5110774;28;20226;-59
2023/08/12 01:57:43;;;;;;;2.93;2.13;;;;;;;17.61;98.09;99599.13;5110926;28;20602;-59
2023/08/12 02:00:11;;;;;;;2.33;2.13;;;;;;;17.59;98.59;99602.78;5111208;28;20201;-59
2023/08/12 02:02:38;;;;;;;2.73;2.03;;;;;;;17.53;98.82;99601.59;5110695;28;20251;-59
2023/08/12 02:05:05;;;;;;;3.03;2.00;;;;;;;17.49;99.58;99605.44;5110789;28;20201;-59
2023/08/12 02:07:32;;;;;;;2.67;2.00;;;;;;;17.53;99.37;99600.78;5110849;28;20700;-59
2023/08/12 02:09:59;;;;;;;2.83;1.90;;;;;;;17.47;100.00;99598.78;5109272;28;20376;-60
2023/08/12 02:12:26;;;;;;;3.13;2.20;;;;;;;17.45;100.00;99598.09;5109362;28;20570;-59
2023/08/12 02:14:54;;;;;;;3.20;2.17;;;;;;;17.39;100.00;99600.31;5110007;28;20619;-59
2023/08/12 02:17:21;;;;;;;3.23;2.17;;;;;;;17.40;100.00;99601.94;5110805;28;20199;-59
2023/08/12 02:19:48;;;;;;;2.20;1.77;;;;;;;17.45;100.00;99598.09;5110684;28;20215;-59
2023/08/12 02:22:15;;;;;;;2.37;2.00;;;;;;;17.44;100.00;99597.28;5110400;28;20208;-59
2023/08/12 02:24:41;;;;;;;2.67;2.07;;;;;;;17.38;100.00;99601.25;5110519;28;20196;-59
2023/08/12 02:27:08;;;;;;;3.63;2.20;;;;;;;17.28;100.00;99597.91;5110489;28;20196;-59
2023/08/12 02:29:35;;;;;;;3.13;2.10;;;;;;;17.28;100.00;99597.91;5110325;28;20706;-59
2023/08/12 02:32:04;;;;;;;2.40;2.00;;;;;;;17.23;100.00;99594.09;5110591;27;20200;-59
2023/08/12 02:34:30;;;;;;;3.03;2.20;;;;;;;17.28;100.00;99602.22;5110241;28;20735;-59
2023/08/12 02:36:57;;;;;;;4.07;2.00;;;;;;;17.23;100.00;99602.66;5110385;28;20204;-59
2023/08/12 02:39:24;;;;;;;2.97;2.07;;;;;;;17.21;100.00;99602.00;5110051;28;20200;-59
2023/08/12 02:41:51;;;;;;;3.23;2.27;;;;;;;17.18;100.00;99604.84;5110074;28;20206;-59
2023/08/12 02:44:18;;;;;;;3.60;2.23;;;;;;;17.13;100.00;99594.13;5110276;28;20211;-59
2023/08/12 02:46:45;;;;;;;2.93;2.03;;;;;;;17.13;100.00;99607.03;5109043;28;20419;-59
2023/08/12 02:49:13;;;;;;;4.40;2.30;;;;;;;17.08;100.00;99606.66;5109762;28;20223;-59
2023/08/12 02:51:39;;;;;;;2.83;2.20;;;;;;;17.03;100.00;99598.50;5109807;28;20198;-59
2023/08/12 02:54:06;;;;;;;3.23;2.17;;;;;;;17.02;100.00;99607.22;5109758;28;20241;-59
2023/08/12 02:56:33;;;;;;;2.90;2.07;;;;;;;17.03;100.00;99614.81;5109930;28;20206;-59
2023/08/12 02:59:00;;;;;;;2.90;2.20;;;;;;;16.98;100.00;99607.47;5109870;28;20206;-59
2023/08/12 03:01:27;;;;;;;2.57;2.10;;;;;;;16.89;100.00;99618.63;5109791;28;20314;-59
2023/08/12 03:03:54;;;;;;;4.17;2.67;;;;;;;16.84;100.00;99614.84;5109747;28;20429;-59
2023/08/12 03:06:22;;;;;;;3.23;2.10;;;;;;;16.72;100.00;99620.13;5109923;28;20594;-59
2023/08/12 03:08:49;;;;;;;2.60;2.17;;;;;;;16.71;100.00;99615.91;5109385;28;20209;-59
2023/08/12 03:11:18;;;;;;;2.83;2.10;;;;;;;16.75;100.00;99622.47;5109931;28;20193;-59
2023/08/12 03:13:45;;;;;;;2.80;2.20;;;;;;;16.83;100.00;99629.53;5109445;28;20260;-59
2023/08/12 03:16:13;;;;;;;3.50;2.17;;;;;;;16.77;100.00;99624.91;5109139;28;20659;-59
2023/08/12 03:18:40;;;;;;;2.70;1.90;;;;;;;16.68;100.00;99630.88;5109381;28;20643;-59
2023/08/12 03:21:08;;;;;;;3.30;2.23;;;;;;;16.63;100.00;99622.72;5109077;28;20587;-59
2023/08/12 03:23:36;;;;;;;3.63;2.27;;;;;;;16.62;100.00;99629.66;5109282;28;20248;-59
2023/08/12 03:26:03;;;;;;;3.83;2.60;;;;;;;16.57;100.00;99629.25;5109180;28;20374;-59
2023/08/12 03:28:30;;;;;;;5.50;2.00;;;;;;;16.59;100.00;99629.13;5109470;28;20198;-59
2023/08/12 03:30:57;;;;;;;2.80;2.10;;;;;;;16.55;100.00;99630.31;5109164;28;20199;-59
2023/08/12 03:33:24;;;;;;;2.80;2.30;;;;;;;16.53;100.00;99627.88;5109125;28;20610;-59
2023/08/12 03:35:51;;;;;;;3.43;2.27;;;;;;;16.52;100.00;99627.09;5108734;28;20205;-59
2023/08/12 03:38:18;;;;;;;4.00;2.47;;;;;;;16.59;100.00;99636.84;5109076;28;20491;-59
2023/08/12 03:40:46;;;;;;;3.30;2.40;;;;;;;16.59;100.00;99637.66;5109071;28;20196;-59
2023/08/12 03:43:13;;;;;;;3.10;2.40;;;;;;;16.59;100.00;99636.84;5109255;28;20594;-59
2023/08/12 03:45:43;;;;;;;3.03;2.20;;;;;;;16.52;100.00;99641.72;5107870;28;20197;-61
2023/08/12 03:48:10;;;;;;;3.13;2.40;;;;;;;16.51;100.00;99645.28;5107265;28;20202;-59
2023/08/12 03:50:38;;;;;;;2.80;2.10;;;;;;;16.48;100.00;99651.50;5107374;28;20699;-59
2023/08/12 03:53:06;;;;;;;3.67;2.70;;;;;;;16.45;100.00;99651.78;5109186;28;20205;-59
2023/08/12 03:55:32;;;;;;;4.70;2.60;;;;;;;16.43;100.00;99651.09;5108657;28;20236;-59
2023/08/12 03:58:01;;;;;;;2.93;2.27;;;;;;;16.41;100.00;99652.19;5108240;28;20718;-60
2023/08/12 04:00:29;;;;;;;3.03;2.37;;;;;;;16.40;100.00;99648.78;5108663;28;20669;-59
2023/08/12 04:02:56;;;;;;;3.40;2.43;;;;;;;16.45;100.00;99659.53;5108462;28;20197;-59
2023/08/12 04:05:23;;;;;;;3.63;2.50;;;;;;;16.39;100.00;99654.91;5108513;28;20224;-59
2023/08/12 04:07:49;;;;;;;3.43;2.53;;;;;;;16.36;100.00;99657.75;5108414;28;20194;-59
2023/08/12 04:10:16;;;;;;;2.93;2.40;;;;;;;16.39;100.00;99657.47;5108286;28;20198;-59
2023/08/12 04:12:44;;;;;;;3.07;2.40;;;;;;;16.40;100.00;99653.94;5108376;27;20689;-60
2023/08/12 04:15:12;;;;;;;3.47;2.50;;;;;;;16.43;100.00;99653.66;5108660;28;20252;-59
2023/08/12 04:17:40;;;;;;;4.03;2.50;;;;;;;16.50;100.00;99670.28;5108464;28;20216;-59
2023/08/12 04:20:08;;;;;;;2.83;2.20;;;;;;;16.66;100.00;99666.34;5108253;28;20378;-59
2023/08/12 04:22:35;;;;;;;4.17;2.60;;;;;;;16.71;100.00;99672.72;5108365;28;20197;-59
2023/08/12 04:25:03;;;;;;;2.63;2.30;;;;;;;16.75;100.00;99670.69;5108361;28;20194;-59
2023/08/12 04:27:29;;;;;;;4.17;2.80;;;;;;;16.80;100.00;99672.91;5108300;28;20580;-59
2023/08/12 04:29:56;;;;;;;3.43;2.33;;;;;;;16.88;100.00;99676.44;5108330;28;20225;-59
2023/08/12 04:32:24;;;;;;;2.93;2.37;;;;;;;17.00;100.00;99676.28;5108111;28;20200;-60
2023/08/12 04:34:51;;;;;;;5.10;2.50;;;;;;;17.08;100.00;99672.06;5108049;28;20229;-59
2023/08/12 04:37:18;;;;;;;3.20;2.60;;;;;;;17.15;100.00;99669.72;5108056;28;20207;-59
2023/08/12 04:39:45;;;;;;;3.60;2.50;;;;;;;17.24;100.00;99674.06;5108118;28;20205;-59
2023/08/12 04:42:12;;;;;;;3.40;2.50;;;;;;;17.34;100.00;99677.47;5108181;28;20269;-59
2023/08/12 04:44:39;;;;;;;3.80;2.40;;;;;;;17.40;100.00;99676.91;5108091;28;20224;-59
2023/08/12 04:47:06;;;;;;;3.60;2.57;;;;;;;17.44;100.00;99669.66;5108015;28;20204;-59
2023/08/12 04:49:34;;;;;;;5.30;2.60;;;;;;;17.60;100.00;99674.25;5108041;28;20196;-59
2023/08/12 04:52:01;;;;;;;2.83;2.40;;;;;;;17.73;100.00;99679.91;5108205;28;20210;-59
2023/08/12 04:54:28;;;;;;;3.87;2.80;;;;;;;17.86;100.00;99677.84;5108005;28;20603;-59
2023/08/12 04:56:56;;;;;;;3.43;2.43;;;;;;;18.03;100.00;99683.22;5107920;28;20469;-59
2023/08/12 04:59:23;;;;;;;3.37;2.33;;;;;;;18.19;100.00;99683.41;5107975;28;20407;-59
2023/08/12 05:01:49;;;;;;;5.73;2.40;;;;;;;18.35;100.00;99685.34;5107899;28;20207;-59
2023/08/12 05:04:16;;;;;;;3.27;2.37;;;;;;;18.48;100.00;99683.22;5107927;28;20221;-59
2023/08/12 05:06:45;;;;;;;3.33;2.50;;;;;;;18.59;100.00;99682.19;5107930;28;20722;-59
2023/08/12 05:09:12;;;;;;;2.57;2.20;;;;;;;18.76;99.30;99689.19;5107771;28;20201;-59
2023/08/12 05:11:39;;;;;;;3.70;2.40;;;;;;;18.85;97.94;99689.22;5111562;28;20199;-60
2023/08/12 05:14:06;;;;;;;3.37;2.53;;;;;;;18.99;96.51;99691.28;5111506;28;20229;-59
2023/08/12 05:16:32;;;;;;;3.30;2.30;;;;;;;19.08;94.35;99698.19;5111895;28;20202;-59
2023/08/12 05:18:59;;;;;;;2.60;2.10;;;;;;;19.15;95.19;99688.84;5112050;28;20211;-59
2023/08/12 05:21:26;;;;;;;3.03;2.37;;;;;;;19.31;95.23;99689.91;5111752;28;20285;-60
2023/08/12 05:23:55;;;;;;;5.83;2.30;;;;;;;19.55;94.08;99687.47;5111592;28;20231;-59
2023/08/12 05:26:22;;;;;;;3.73;2.43;;;;;;;19.70;94.38;99695.53;5111787;28;20196;-60
2023/08/12 05:28:48;;;;;;;3.83;2.60;;;;;;;19.90;95.27;99688.31;5111645;28;20705;-59
2023/08/12 05:31:15;;;;;;;2.57;2.10;;;;;;;20.02;91.45;99692.25;5111565;28;20208;-59
2023/08/12 05:33:42;;;;;;;3.47;2.50;;;;;;;20.28;94.22;99691.38;5111801;27;20201;-59
2023/08/12 05:36:09;;;;;;;2.50;2.20;;;;;;;20.39;90.58;99698.88;5111262;28;20235;-60
2023/08/12 05:38:36;;;;;;;3.70;2.40;;;;;;;20.56;89.57;99700.53;5111437;28;20634;-60
2023/08/12 05:41:07;;;;;;;4.47;2.50;;;;;;;20.78;90.64;99706.09;5111278;28;20205;-60
2023/08/12 05:43:34;;;;;;;3.90;2.53;;;;;;;20.88;87.66;99704.13;5111639;28;20212;-60
2023/08/12 05:46:01;;;;;;;3.70;2.50;;;;;;;21.02;85.60;99702.66;5111340;28;20203;-59
2023/08/12 05:48:27;;;;;;;3.20;2.20;;;;;;;21.16;87.84;99696.00;5111355;28;20733;-60
2023/08/12 05:50:54;;;;;;;3.33;2.37;;;;;;;21.29;85.01;99701.50;5111160;28;20200;-60
2023/08/12 05:53:22;;;;;;;3.03;2.40;;;;;;;21.46;85.76;99699.72;5111141;28;20196;-60
2023/08/12 05:55:49;;;;;;;4.17;2.30;;;;;;;21.59;83.89;99701.81;5111062;28;20229;-60
2023/08/12 05:58:17;;;;;;;3.30;2.20;;;;;;;21.77;83.81;99699.81;5110960;28;20216;-60
2023/08/12 06:00:45;;;;;;;3.57;2.73;;;;;;;21.62;80.04;99702.28;5110855;28;20193;-60
2023/08/12 06:03:12;;;;;;;4.33;2.50;;;;;;;21.79;83.23;99695.25;5111045;28;20573;-60
2023/08/12 06:05:40;;;;;;;2.50;2.20;;;;;;;21.87;82.12;99700.41;5110714;28;20213;-60
2023/08/12 06:08:07;;;;;;;3.80;2.47;;;;;;;22.04;84.15;99705.56;5110660;28;20203;-59
2023/08/12 06:10:34;;;;;;;3.08;2.20;;;;;;;22.30;84.05;99708.69;5110892;28;20682;-60
2023/08/12 06:13:01;;;;;;;3.83;2.35;;;;;;;22.51;81.39;99702.06;5110890;28;20253;-60
2023/08/12 06:15:29;;;;;;;2.92;2.38;;;;;;;22.73;77.63;99709.09;5110862;28;20225;-60
2023/08/12 06:17:56;;;;;;;2.90;2.60;;;;;;;22.86;80.48;99705.06;5110603;28;20208;-60
2023/08/12 06:20:24;;;;;;;4.00;2.65;;;;;;;23.02;79.75;99704.97;5110532;28;20193;-60
2023/08/12 06:22:51;;;;;;;3.33;2.55;;;;;;;23.27;80.92;99706.41;5110533;28;20204;-60
2023/08/12 06:25:18;;;;;;;6.05;2.65;;;;;;;23.53;79.30;99706.94;5110459;28;20205;-60
2023/08/12 06:27:45;;;;;;;2.40;2.20;;;;;;;23.73;75.31;99703.63;5110875;28;20206;-60
2023/08/12 06:30:13;;;;;;;3.50;2.58;;;;;;;23.79;75.31;99701.28;5110564;28;20193;-59
2023/08/12 06:32:42;;;;;;;3.40;2.47;;;;;;;23.70;72.36;99705.81;5110361;28;20232;-60
2023/08/12 06:35:09;;;;;;;3.55;2.50;;;;;;;23.83;78.75;99702.56;5110042;28;20233;-60
2023/08/12 06:37:36;;;;;;;2.55;2.35;;;;;;;23.73;71.61;99710.66;5110175;28;20198;-60
2023/08/12 06:40:03;;;;;;;3.90;2.92;;;;;;;23.91;74.81;99705.91;5110185;28;20194;-60
2023/08/12 06:42:30;;;;;;;4.80;2.42;;;;;;;24.17;73.74;99705.41;5110261;27;20239;-60
2023/08/12 06:44:59;;;;;;;3.10;2.50;;;;;;;24.24;71.76;99710.69;5110283;27;20690;-59
2023/08/12 06:47:27;;;;;;;3.15;2.50;;;;;;;24.35;74.09;99707.59;5110127;28;20296;-60
2023/08/12 06:49:55;;;;;;;9.20;3.22;;;;;;;24.68;75.60;99707.13;5109937;28;20205;-60
2023/08/12 06:52:23;;;;;;;3.50;2.58;;;;;;;24.95;79.06;99718.63;5109916;28;20575;-60
2023/08/12 06:54:50;;;;;;;5.47;2.38;;;;;;;25.26;75.90;99720.13;5110061;28;20228;-60
2023/08/12 06:57:16;;;;;;;6.88;2.72;;;;;;;25.46;73.42;99720.25;5109751;28;20206;-60
2023/08/12 06:59:43;;;;;;;8.13;3.08;;;;;;;25.68;72.55;99719.16;5109897;28;20202;-60
2023/08/12 07:02:10;;;;;;;3.80;2.60;;;;;;;25.73;66.78;99718.59;5109743;28;20213;-60
2023/08/12 07:04:37;;;;;;;3.42;2.40;;;;;;;25.90;70.15;99722.53;5109601;28;20228;-60
2023/08/12 07:07:05;;;;;;;6.85;3.45;;;;;;;26.16;70.68;99715.78;5109829;28;20201;-60
2023/08/12 07:09:32;;;;;;;3.17;2.35;;;;;;;26.34;71.00;99718.66;5109937;28;20193;-60
2023/08/12 07:11:59;;;;;;;3.03;2.30;;;;;;;26.50;68.89;99721.94;5109443;27;20205;-60
2023/08/12 07:14:26;;;;;;;3.10;2.30;;;;;;;26.74;71.53;99718.75;5109283;28;20193;-60
2023/08/12 07:16:52;;;;;;;2.80;2.47;;;;;;;26.97;64.14;99728.88;5109357;28;20682;-60
2023/08/12 07:19:19;;;;;;;3.50;2.58;;;;;;;27.07;64.88;99723.19;5109408;28;20592;-60
2023/08/12 07:21:46;;;;;;;4.28;2.50;;;;;;;27.14;62.44;99728.44;5109398;28;20206;-60
2023/08/12 07:24:14;;;;;;;3.97;2.72;;;;;;;27.26;63.76;99722.41;5109063;28;20579;-60
2023/08/12 07:26:41;;;;;;;2.97;2.20;;;;;;;27.38;65.65;99721.78;5109230;28;20202;-60
2023/08/12 07:29:08;;;;;;;4.68;2.40;;;;;;;27.37;63.73;99717.53;5109105;28;20193;-60
2023/08/12 07:31:35;;;;;;;3.90;2.60;;;;;;;27.56;62.97;99729.84;5109339;28;20205;-60
2023/08/12 07:34:02;;;;;;;2.58;2.38;;;;;;;27.62;58.42;99726.38;5108897;28;20200;-61
2023/08/12 07:36:29;;;;;;;3.15;2.42;;;;;;;27.68;60.77;99722.91;5109165;28;20233;-60
2023/08/12 07:38:55;;;;;;;4.00;2.75;;;;;;;27.82;59.64;99720.28;5109123;28;20208;-60
2023/08/12 07:41:27;;;;;;;3.40;2.50;;;;;;;27.94;66.01;99719.44;5109162;28;20208;-60
2023/08/12 07:43:54;;;;;;;3.67;2.60;;;;;;;27.90;56.40;99722.69;5108831;28;20211;-60
2023/08/12 07:46:20;;;;;;;3.15;2.60;;;;;;;27.60;58.45;99723.13;5108832;28;20701;-60
2023/08/12 07:48:47;;;;;;;3.70;2.60;;;;;;;27.87;59.71;99718.66;5109036;28;20204;-60
2023/08/12 07:51:14;;;;;;;3.47;2.60;;;;;;;27.95;57.33;99709.72;5108969;28;20201;-60
2023/08/12 07:53:41;;;;;;;3.38;2.70;;;;;;;27.79;60.11;99710.19;5108839;28;20337;-60
2023/08/12 07:56:08;;;;;;;7.88;2.85;;;;;;;28.11;68.61;99696.09;5108770;28;20232;-61
2023/08/12 07:58:36;;;;;;;4.25;2.70;;;;;;;28.37;64.20;99705.66;5108774;28;20202;-61
2023/08/12 08:01:04;;;;;;;4.35;2.70;;;;;;;28.60;64.15;99702.50;5108424;28;20674;-61
2023/08/12 08:03:31;;;;;;;3.72;2.75;;;;;;;28.60;58.35;99715.66;5108563;28;20721;-61
2023/08/12 08:05:58;;;;;;;5.78;2.88;;;;;;;28.65;61.04;99715.00;5108980;28;20244;-61
2023/08/12 08:08:25;;;;;;;3.47;2.53;;;;;;;28.71;56.16;99718.63;5108526;28;20567;-61
2023/08/12 08:10:52;;;;;;;5.50;2.78;;;;;;;28.81;60.38;99709.22;5108429;28;20209;-61
2023/08/12 08:13:18;;;;;;;3.38;2.67;;;;;;;29.05;56.13;99717.38;5108331;28;20198;-61
2023/08/12 08:15:47;;;;;;;3.25;2.47;;;;;;;29.09;59.69;99719.34;5108582;28;20229;-61
2023/08/12 08:18:14;;;;;;;6.25;3.40;;;;;;;29.08;51.68;99720.38;5108356;28;20689;-61
2023/08/12 08:20:43;;;;;;;3.60;2.53;;;;;;;29.48;67.63;99719.19;5108092;28;20201;-61
2023/08/12 08:23:10;;;;;;;3.42;2.70;;;;;;;29.61;57.82;99715.59;5108439;28;20197;-61
2023/08/12 08:25:37;;;;;;;3.90;2.60;;;;;;;29.68;54.96;99722.44;5108347;28;20689;-61
2023/08/12 08:28:04;;;;;;;5.25;3.40;;;;;;;29.70;56.36;99716.94;5108498;28;20197;-61
2023/08/12 08:30:31;;;;;;;4.45;3.15;;;;;;;29.59;57.83;99715.03;5108301;28;20250;-61
2023/08/12 08:32:59;;;;;;;3.58;2.75;;;;;;;29.69;57.68;99710.06;5108339;28;20197;-61
2023/08/12 08:35:26;;;;;;;2.97;2.40;;;;;;;29.88;63.44;99709.03;5108247;28;20705;-61
2023/08/12 08:37:54;;;;;;;3.28;2.60;;;;;;;30.01;59.02;99708.84;5108313;28;20197;-61
2023/08/12 08:40:21;;;;;;;3.40;2.67;;;;;;;30.20;59.19;99700.91;5107547;28;20201;-61
2023/08/12 08:42:51;;;;;;;3.78;2.90;;;;;;;30.08;57.14;99708.78;5107577;28;20392;-61
2023/08/12 08:45:18;;;;;;;5.07;2.72;;;;;;;29.95;52.31;99704.47;5109057;28;20212;-61
2023/08/12 08:47:48;;;;;;;3.10;2.47;;;;;;;29.89;50.16;99708.00;5112415;28;20281;-61
2023/08/12 08:50:16;;;;;;;3.22;2.47;;;;;;;30.06;56.68;99707.38;5112436;28;20201;-61
2023/08/12 08:52:44;;;;;;;3.65;2.70;;;;;;;30.09;54.75;99699.81;5112430;28;20208;-61
2023/08/12 08:55:12;;;;;;;5.10;2.85;;;;;;;30.05;52.87;99711.03;5112158;28;20209;-61
2023/08/12 08:57:39;;;;;;;4.25;2.85;;;;;;;29.95;54.40;99709.72;5112363;28;20194;-61
2023/08/12 09:00:09;;;;;;;3.92;2.63;;;;;;;29.91;53.09;99713.84;5112051;28;20261;-61
2023/08/12 09:02:37;;;;;;;4.28;2.67;;;;;;;30.21;53.53;99697.25;5112304;28;20282;-61
2023/08/12 09:05:06;;;;;;;3.47;2.83;;;;;;;30.21;52.01;99713.09;5112086;28;20251;-61
2023/08/12 09:07:35;;;;;;;2.92;2.47;;;;;;;30.41;59.95;99696.97;5112254;28;20193;-61
2023/08/12 09:10:03;;;;;;;4.05;2.80;;;;;;;30.59;57.44;99694.25;5111860;28;20258;-61
2023/08/12 09:12:31;;;;;;;4.63;2.70;;;;;;;30.75;56.67;99684.88;5112063;28;20209;-61
2023/08/12 09:14:58;;;;;;;4.10;2.75;;;;;;;30.95;53.33;99694.31;5111779;28;20728;-61
2023/08/12 09:17:25;;;;;;;3.63;2.60;;;;;;;31.00;51.15;99683.88;5111848;28;20206;-61
2023/08/12 09:19:52;;;;;;;5.13;2.80;;;;;;;30.89;52.61;99696.03;5111527;28;20611;-61
2023/08/12 09:22:19;;;;;;;4.97;2.45;;;;;;;30.82;55.14;99692.72;5111728;28;20594;-61
2023/08/12 09:24:47;;;;;;;2.78;2.45;;;;;;;31.01;52.43;99690.75;5111641;28;20201;-61
2023/08/12 09:27:18;;;;;;;3.03;2.60;;;;;;;31.15;49.72;99696.63;5111729;28;20285;-61
2023/08/12 09:29:45;;;;;;;3.83;2.83;;;;;;;31.32;52.08;99690.38;5111821;28;20273;-61
2023/08/12 09:32:13;;;;;;;3.08;2.45;;;;;;;31.01;48.07;99694.22;5111579;28;20621;-61
2023/08/12 09:34:48;;;;;;;3.20;2.60;;;;;;;30.97;47.12;99689.63;5111466;28;20193;-61
2023/08/12 09:37:16;;;;;;;5.50;2.60;;;;;;;31.02;52.49;99682.63;5111255;28;20221;-61
2023/08/12 09:39:43;;;;;;;3.05;2.40;;;;;;;31.10;53.65;99684.91;5111376;28;20203;-61
2023/08/12 09:42:12;;;;;;;3.10;2.40;;;;;;;31.02;50.00;99687.91;5111331;28;20650;-61
2023/08/12 09:44:39;;;;;;;5.88;2.35;;;;;;;31.10;50.69;99682.28;5111304;28;20196;-61
2023/08/12 09:47:08;;;;;;;3.08;2.45;;;;;;;31.18;50.20;99680.31;5111289;28;20494;-61
2023/08/12 09:49:35;;;;;;;6.22;2.40;;;;;;;31.14;46.11;99679.97;5111495;27;20540;-61
2023/08/12 09:52:03;;;;;;;3.30;2.53;;;;;;;31.20;49.47;99676.41;5111009;28;20204;-60
2023/08/12 09:54:32;;;;;;;3.08;2.30;;;;;;;31.09;47.88;99670.09;5111300;28;20247;-61
2023/08/12 09:57:00;;;;;;;3.42;2.63;;;;;;;31.16;50.58;99677.91;5110449;28;20229;-61
2023/08/12 09:59:32;;;;;;;4.30;2.53;;;;;;;31.26;48.63;99680.75;5111087;28;20209;-61
2023/08/12 10:01:59;;;;;;;3.88;2.60;;;;;;;31.07;44.79;99674.81;5111374;28;20212;-61
2023/08/12 10:04:32;;;;;;;3.25;2.50;;;;;;;31.01;48.40;99674.91;5110794;28;20212;-62
2023/08/12 10:07:00;;;;;;;3.13;2.67;;;;;;;30.82;47.00;99671.59;5111095;28;20547;-60
2023/08/12 10:09:27;;;;;;;2.80;2.50;;;;;;;30.92;46.28;99660.44;5110806;28;20204;-61
2023/08/12 10:11:54;;;;;;;3.17;2.40;;;;;;;30.82;44.83;99661.03;5110327;28;20555;-62
2023/08/12 10:14:23;;;;;;;3.35;2.60;;;;;;;30.85;46.43;99665.84;5110305;28;20216;-61
2023/08/12 10:16:53;;;;;;;4.13;2.40;;;;;;;30.78;46.74;99659.88;5110584;28;20260;-61
2023/08/12 10:19:22;;;;;;;2.97;2.67;;;;;;;30.89;49.10;99657.25;5110750;28;20286;-61
2023/08/12 10:21:50;;;;;;;2.60;2.40;;;;;;;30.96;46.75;99645.75;5110422;28;20197;-62
2023/08/12 10:24:17;;;;;;;2.95;2.40;;;;;;;30.64;47.30;99641.59;5110361;28;20202;-61
2023/08/12 10:26:46;;;;;;;3.38;2.67;;;;;;;30.75;46.07;99640.00;5110432;28;20190;-61
2023/08/12 10:29:13;;;;;;;3.03;2.72;;;;;;;30.96;50.12;99645.75;5110405;28;20215;-62
2023/08/12 10:31:44;;;;;;;2.70;2.40;;;;;;;31.01;48.90;99637.94;5110198;28;20228;-61
2023/08/12 10:34:20;;;;;;;3.28;2.60;;;;;;;31.18;50.36;99638.81;5110109;28;20666;-62
2023/08/12 10:36:48;;;;;;;3.63;2.60;;;;;;;31.16;48.13;99634.84;5110585;28;20274;-61
2023/08/12 10:39:15;;;;;;;3.30;2.47;;;;;;;31.33;44.60;99646.28;5110079;28;20201;-61
2023/08/12 10:41:52;;;;;;;3.25;2.60;;;;;;;31.48;46.46;99632.63;5110191;28;20255;-62
2023/08/12 10:44:21;;;;;;;3.10;2.40;;;;;;;31.51;46.88;99632.94;5110255;28;20208;-62
2023/08/12 10:46:52;;;;;;;4.57;2.70;;;;;;;31.50;47.23;99627.88;5110207;28;20258;-62
2023/08/12 10:49:22;;;;;;;4.55;2.50;;;;;;;31.42;45.95;99628.28;5109926;28;20201;-62
2023/08/12 10:51:51;;;;;;;4.72;2.30;;;;;;;31.50;49.57;99619.94;5108550;28;20197;-61
2023/08/12 10:54:22;;;;;;;3.03;2.63;;;;;;;31.79;48.86;99629.50;5109757;28;20197;-61
2023/08/12 10:57:11;;;;;;;2.92;2.60;;;;;;;31.94;45.70;99614.97;5109744;28;20225;-61
2023/08/12 10:59:58;;;;;;;3.10;2.60;;;;;;;32.17;46.27;99620.16;5109856;28;20204;-62
2023/08/12 11:02:28;;;;;;;2.65;2.45;;;;;;;32.09;47.25;99617.88;5109871;28;20233;-62
2023/08/12 11:04:59;;;;;;;5.43;2.40;;;;;;;32.18;46.10;99619.09;5108668;28;20321;-61
2023/08/12 11:07:34;;;;;;;3.55;2.78;;;;;;;32.35;48.02;99611.16;5108170;28;20207;-62
2023/08/12 11:10:07;;;;;;;3.85;2.72;;;;;;;32.35;50.07;99605.88;5109465;28;20204;-62
2023/08/12 11:12:36;;;;;;;3.15;2.40;;;;;;;32.37;46.12;99614.34;5109589;28;20200;-63
2023/08/12 11:15:05;;;;;;;3.33;2.58;;;;;;;32.22;44.21;99612.28;5109442;28;20198;-63
2023/08/12 11:17:36;;;;;;;2.70;2.50;;;;;;;32.24;45.13;99602.25;5109301;28;20225;-62
2023/08/12 11:20:06;;;;;;;4.00;2.67;;;;;;;32.27;49.22;99603.63;5107149;28;20197;-61
2023/08/12 11:22:37;;;;;;;5.22;2.72;;;;;;;32.13;44.37;99608.41;5108693;28;20208;-62
2023/08/12 11:25:07;;;;;;;3.33;2.53;;;;;;;32.04;47.42;99604.56;5109271;28;20455;-62
2023/08/12 11:27:42;;;;;;;5.88;2.70;;;;;;;32.22;44.56;99609.63;5109533;28;20233;-62
2023/08/12 11:30:10;;;;;;;2.80;2.35;;;;;;;32.30;45.85;99603.13;5109178;27;20197;-61
2023/08/12 11:32:38;;;;;;;3.30;2.63;;;;;;;32.48;46.35;99599.47;5109103;28;20200;-61
2023/08/12 11:35:08;;;;;;;3.10;2.60;;;;;;;32.19;43.98;99604.81;5108017;28;20197;-62